Time;durP1;ratioP1;P1;durP2;ratioP2;P2;SDS_P1;SDS_P2;PMS_P1;PMS_P2;Temp;Humidity;BMP_temperature;BMP_pressure;BME280_temperature;BME280_humidity;BME280_pressure;Samples;Min_cycle;Max_cycle;Signal;HPM_P1;HPM_P2
2023/03/21 00:01:55;;;;;;;2.60;1.65;;;;;;;20.88;40.20;101542.69;5062125;28;20025;-72
2023/03/21 00:04:21;;;;;;;2.33;1.73;;;;;;;21.08;40.40;101576.53;5049312;28;20037;-72
2023/03/21 00:06:47;;;;;;;3.08;1.63;;;;;;;21.06;40.33;101573.13;5052074;28;20427;-73
2023/03/21 00:09:13;;;;;;;3.75;1.63;;;;;;;20.96;40.13;101556.22;5054419;28;20035;-72
2023/03/21 00:11:38;;;;;;;3.28;1.90;;;;;;;21.02;40.19;101560.94;5061752;28;20021;-72
2023/03/21 00:14:04;;;;;;;2.65;1.70;;;;;;;20.78;40.47;101526.63;5050515;28;20481;-72
2023/03/21 00:16:34;;;;;;;2.92;1.58;;;;;;;21.00;40.36;101559.44;5055218;28;20029;-72
2023/03/21 00:19:02;;;;;;;2.20;1.63;;;;;;;20.97;40.40;101557.91;5063032;28;20032;-72
2023/03/21 00:21:31;;;;;;;3.22;1.80;;;;;;;20.88;40.53;101548.09;5052097;28;20063;-72
2023/03/21 00:23:56;;;;;;;2.40;1.45;;;;;;;20.95;40.35;101551.84;5054701;28;20094;-72
2023/03/21 00:26:22;;;;;;;2.80;1.98;;;;;;;20.92;40.72;101561.13;5064841;28;20029;-73
2023/03/21 00:28:47;;;;;;;1.98;1.35;;;;;;;20.91;40.66;101556.72;5054260;28;20151;-72
2023/03/21 00:31:13;;;;;;;2.55;1.70;;;;;;;20.70;40.78;101527.47;5048992;28;20040;-73
2023/03/21 00:33:38;;;;;;;2.22;1.48;;;;;;;20.73;40.44;101531.69;5061208;28;20069;-73
2023/03/21 00:36:05;;;;;;;2.35;1.52;;;;;;;20.83;40.48;101545.06;5049763;28;20040;-72
2023/03/21 00:38:30;;;;;;;3.20;1.70;;;;;;;20.61;40.30;101512.25;5051651;28;20098;-72
2023/03/21 00:40:56;;;;;;;3.25;1.65;;;;;;;20.84;40.35;101547.56;5064057;28;20038;-72
2023/03/21 00:43:28;;;;;;;4.15;1.75;;;;;;;20.84;40.37;101534.06;5049532;28;20053;-72
2023/03/21 00:45:55;;;;;;;2.85;1.67;;;;;;;20.82;40.52;101536.09;5047359;28;20025;-72
2023/03/21 00:48:20;;;;;;;2.63;1.92;;;;;;;20.80;40.73;101530.00;5051767;28;20033;-72
2023/03/21 00:50:46;;;;;;;2.65;1.60;;;;;;;20.79;40.76;101533.72;5059207;28;20026;-72
2023/03/21 00:53:12;;;;;;;2.83;1.40;;;;;;;20.79;40.61;101532.88;5059769;28;20030;-72
2023/03/21 00:55:40;;;;;;;3.28;1.70;;;;;;;20.50;40.76;101485.53;5050502;28;20092;-72
2023/03/21 00:58:06;;;;;;;3.45;2.00;;;;;;;20.76;40.94;101523.22;5052540;28;20063;-72
2023/03/21 01:00:32;;;;;;;1.90;1.38;;;;;;;20.74;40.53;101516.31;5046069;28;20029;-72
2023/03/21 01:03:04;;;;;;;2.28;1.42;;;;;;;20.73;40.52;101520.88;5048598;28;20032;-73
2023/03/21 01:08:17;;;;;;;1.67;1.30;;;;;;;20.69;40.66;101520.38;5064200;28;20083;-72
2023/03/21 01:10:44;;;;;;;3.33;2.08;;;;;;;20.69;40.61;101514.97;5047147;28;20028;-72
2023/03/21 01:13:11;;;;;;;3.58;2.03;;;;;;;20.50;40.70;101481.97;5051649;28;20029;-72
2023/03/21 01:15:43;;;;;;;3.05;1.70;;;;;;;20.65;40.67;101508.19;5053709;28;20395;-72
2023/03/21 01:18:08;;;;;;;2.45;1.38;;;;;;;20.65;40.76;101505.50;5059386;28;20022;-72
2023/03/21 01:20:33;;;;;;;2.13;1.38;;;;;;;20.52;40.73;101494.31;5048851;28;20020;-72
2023/03/21 01:22:59;;;;;;;2.47;1.55;;;;;;;20.34;40.66;101467.38;5053492;28;20047;-73
2023/03/21 01:25:25;;;;;;;2.42;2.05;;;;;;;20.56;40.70;101492.13;5051550;28;20089;-73
2023/03/21 01:27:50;;;;;;;3.05;1.70;;;;;;;20.57;40.98;101493.81;5051740;28;20363;-73
2023/03/21 01:30:15;;;;;;;3.45;1.67;;;;;;;20.57;40.63;101494.66;5052111;28;20025;-73
2023/03/21 01:32:41;;;;;;;2.30;1.55;;;;;;;20.46;40.89;101479.56;5059188;28;20036;-72
2023/03/21 01:35:06;;;;;;;2.78;1.48;;;;;;;20.57;40.65;101493.81;5054124;28;20032;-72
2023/03/21 01:37:32;;;;;;;2.55;1.67;;;;;;;20.55;40.93;101493.97;5058951;28;20103;-72
2023/03/21 01:39:57;;;;;;;2.60;1.35;;;;;;;20.55;41.01;101487.72;5050871;28;20025;-73
2023/03/21 01:42:23;;;;;;;1.55;1.33;;;;;;;20.31;41.05;101456.94;5057362;28;20026;-72
2023/03/21 01:45:03;;;;;;;2.70;1.20;;;;;;;20.53;40.93;101489.75;5051550;28;20025;-72
2023/03/21 01:47:29;;;;;;;3.05;1.60;;;;;;;20.51;40.88;101487.22;5050454;28;20398;-72
2023/03/21 01:49:57;;;;;;;2.13;1.27;;;;;;;20.44;41.14;101476.19;5053753;28;20036;-72
2023/03/21 01:52:26;;;;;;;2.40;1.90;;;;;;;20.49;41.00;101483.00;5053971;28;20025;-73
2023/03/21 01:54:53;;;;;;;1.75;1.35;;;;;;;20.45;40.91;101477.03;5047871;28;20033;-73
2023/03/21 01:57:23;;;;;;;1.65;1.50;;;;;;;20.20;40.77;101447.25;5057633;28;20033;-73
2023/03/21 01:59:50;;;;;;;1.80;1.63;;;;;;;20.44;40.92;101489.72;5051659;28;20093;-73
2023/03/21 02:02:26;;;;;;;3.95;1.80;;;;;;;20.23;40.94;101440.69;5052190;28;20473;-73
2023/03/21 02:04:56;;;;;;;1.88;1.13;;;;;;;20.42;41.06;101472.81;5053034;28;20044;-72
2023/03/21 02:07:35;;;;;;;1.80;1.42;;;;;;;20.42;40.84;101469.25;5048436;28;20068;-73
2023/03/21 02:10:03;;;;;;;5.20;1.90;;;;;;;20.41;41.17;101464.88;5059641;28;20048;-73
2023/03/21 02:12:29;;;;;;;2.08;1.45;;;;;;;20.39;41.26;101459.66;5048587;28;20029;-72
2023/03/21 02:14:55;;;;;;;2.83;1.52;;;;;;;20.38;40.82;101459.81;5064149;28;20028;-72
2023/03/21 02:17:39;;;;;;;2.55;1.58;;;;;;;20.34;41.17;101455.75;5050573;28;20038;-72
2023/03/21 02:20:35;;;;;;;2.95;1.55;;;;;;;20.34;41.19;101456.56;5052720;28;20025;-72
2023/03/21 02:23:27;;;;;;;3.05;1.60;;;;;;;20.32;41.28;101452.38;5059557;28;20359;-72
2023/03/21 02:26:11;;;;;;;2.15;1.60;;;;;;;20.31;41.21;101440.72;5033133;28;20036;-72
2023/03/21 02:28:43;;;;;;;1.50;1.33;;;;;;;20.29;41.26;101448.13;5053976;28;20040;-72
2023/03/21 02:31:27;;;;;;;2.20;1.58;;;;;;;20.29;41.23;101447.28;5050547;28;20025;-72
2023/03/21 02:34:20;;;;;;;1.92;1.60;;;;;;;20.27;41.31;101435.81;5055665;28;20029;-72
2023/03/21 02:37:02;;;;;;;2.85;1.60;;;;;;;20.19;41.20;101421.28;5068812;28;20025;-72
2023/03/21 02:39:30;;;;;;;2.17;1.50;;;;;;;20.24;41.42;101426.19;5051571;28;20128;-72
2023/03/21 02:42:13;;;;;;;1.60;1.45;;;;;;;19.96;41.37;101377.88;5052801;28;20017;-73
2023/03/21 02:44:44;;;;;;;1.88;1.58;;;;;;;19.85;41.44;101361.97;5052682;28;20025;-73
2023/03/21 02:47:13;;;;;;;2.22;1.50;;;;;;;20.16;41.10;101427.00;5052129;28;20021;-72
2023/03/21 02:49:45;;;;;;;1.77;1.50;;;;;;;20.18;41.43;101419.59;5049454;28;20029;-73
2023/03/21 02:52:14;;;;;;;2.20;1.42;;;;;;;19.96;41.35;101385.09;5055465;28;20036;-73
2023/03/21 02:54:42;;;;;;;1.92;1.60;;;;;;;20.17;41.55;101422.44;5050654;28;20057;-73
2023/03/21 02:57:08;;;;;;;2.17;1.60;;;;;;;19.93;41.17;101386.28;5050818;28;20521;-72
2023/03/21 02:59:34;;;;;;;1.92;1.50;;;;;;;20.05;41.30;101394.06;5060214;28;20075;-72
2023/03/21 03:01:59;;;;;;;2.85;1.75;;;;;;;20.07;41.24;101408.25;5052556;28;20036;-72
2023/03/21 03:04:26;;;;;;;2.30;1.52;;;;;;;20.13;41.12;101404.88;5061445;28;20021;-72
2023/03/21 03:07:04;;;;;;;2.30;1.50;;;;;;;20.11;41.34;101407.75;5064243;28;20041;-73
2023/03/21 03:09:52;;;;;;;1.90;1.63;;;;;;;20.10;41.22;101402.53;5055783;28;20022;-73
2023/03/21 03:12:30;;;;;;;1.85;1.50;;;;;;;20.09;41.48;101409.78;5067994;28;20057;-73
2023/03/21 03:15:09;;;;;;;3.03;1.48;;;;;;;20.01;41.49;101400.78;5051059;28;20132;-72
2023/03/21 03:17:48;;;;;;;2.28;1.55;;;;;;;19.37;41.58;101292.44;5068947;28;20078;-73
2023/03/21 03:20:32;;;;;;;2.75;1.70;;;;;;;20.06;41.27;101409.28;5056585;28;20039;-73
2023/03/21 03:23:29;;;;;;;2.97;1.77;;;;;;;20.05;41.51;101415.66;5050745;28;20083;-73
2023/03/21 03:26:03;;;;;;;2.30;1.70;;;;;;;19.71;41.58;101358.06;5053089;28;20029;-73
2023/03/21 03:28:34;;;;;;;2.25;1.70;;;;;;;20.02;41.56;101416.84;5054729;28;20060;-72
2023/03/21 03:31:00;;;;;;;1.88;1.40;;;;;;;20.00;41.52;101407.22;5044956;28;20022;-73
2023/03/21 03:33:26;;;;;;;2.33;1.65;;;;;;;19.99;41.50;101409.06;5048390;28;20021;-72
2023/03/21 03:35:52;;;;;;;1.85;1.52;;;;;;;19.97;41.31;101403.84;5060694;28;20037;-72
2023/03/21 03:38:20;;;;;;;2.63;1.95;;;;;;;19.86;41.56;101387.09;5057998;28;20409;-72
2023/03/21 03:40:49;;;;;;;2.33;1.60;;;;;;;19.45;41.42;101316.75;5061084;28;20018;-72
2023/03/21 03:43:15;;;;;;;;;;;;;;;19.95;41.47;101400.44;5050119;28;20084;-72
2023/03/21 03:45:48;;;;;;;2.72;1.80;;;;;;;19.76;41.59;101364.81;5060263;28;19931;-72
2023/03/21 03:48:25;;;;;;;4.28;2.08;;;;;;;19.92;41.82;101398.09;5069652;28;20039;-72
2023/03/21 03:50:54;;;;;;;3.90;1.60;;;;;;;19.89;41.75;101392.19;5064278;28;20047;-72
2023/03/21 03:53:31;;;;;;;;;;;;;;;19.90;41.77;101392.00;5053474;28;20017;-72
2023/03/21 03:55:58;;;;;;;1.73;1.60;;;;;;;19.79;41.55;101375.25;5058002;28;19932;-72
2023/03/21 03:58:24;;;;;;;2.70;2.25;;;;;;;19.86;41.70;101387.09;5067650;28;20029;-72
2023/03/21 04:00:51;;;;;;;2.88;1.73;;;;;;;19.66;41.57;101356.81;5061307;28;20026;-72
2023/03/21 04:03:17;;;;;;;2.60;1.77;;;;;;;19.66;41.68;101362.22;5053051;28;20958;-72
2023/03/21 04:05:45;;;;;;;2.45;1.63;;;;;;;19.84;41.58;101383.72;5054544;28;20105;-72
2023/03/21 04:08:10;;;;;;;2.38;1.55;;;;;;;19.79;41.67;101397.69;5050080;28;20081;-72
2023/03/21 04:10:36;;;;;;;2.47;1.70;;;;;;;19.64;41.48;101359.69;5049787;28;20035;-72
2023/03/21 04:13:01;;;;;;;2.33;1.85;;;;;;;19.66;41.69;101363.06;5051429;28;20025;-72
2023/03/21 04:15:26;;;;;;;1.63;1.50;;;;;;;19.56;41.60;101359.63;5053152;28;20463;-73
2023/03/21 04:17:52;;;;;;;2.42;1.70;;;;;;;19.81;41.62;101387.59;5056561;28;20037;-73
2023/03/21 04:20:17;;;;;;;3.45;2.00;;;;;;;19.81;41.73;101390.28;5034341;28;20032;-73
2023/03/21 04:22:42;;;;;;;2.20;1.60;;;;;;;19.80;41.59;101385.06;5050850;28;20044;-72
2023/03/21 04:25:08;;;;;;;2.25;1.85;;;;;;;19.79;41.42;101386.03;5049895;28;20033;-72
2023/03/21 04:27:33;;;;;;;2.25;1.48;;;;;;;19.71;41.79;101374.25;5051139;28;20026;-73
2023/03/21 04:29:59;;;;;;;2.30;1.63;;;;;;;19.77;41.63;101386.22;5048138;28;20026;-72
2023/03/21 04:32:25;;;;;;;2.22;1.55;;;;;;;19.76;41.96;101395.34;5051602;28;20482;-72
2023/03/21 04:34:52;;;;;;;2.05;1.85;;;;;;;19.75;41.74;101377.44;5052196;28;20025;-72
2023/03/21 04:37:19;;;;;;;4.25;2.30;;;;;;;19.73;41.90;101376.75;5049552;28;20036;-72
2023/03/21 04:39:46;;;;;;;1.85;1.52;;;;;;;19.67;41.61;101374.72;5047740;28;20032;-72
2023/03/21 04:42:13;;;;;;;2.42;1.50;;;;;;;19.69;41.91;101372.69;5049673;28;20014;-73
2023/03/21 04:44:39;;;;;;;2.90;2.13;;;;;;;19.51;42.03;101339.56;5047049;28;20029;-73
2023/03/21 04:47:04;;;;;;;2.33;1.70;;;;;;;19.46;41.73;101340.03;5054256;28;20041;-73
2023/03/21 04:49:29;;;;;;;2.05;1.75;;;;;;;19.48;41.77;101346.09;5050268;28;20495;-72
2023/03/21 04:51:55;;;;;;;2.90;2.00;;;;;;;19.67;41.69;101375.56;5054696;28;20040;-72
2023/03/21 04:54:20;;;;;;;2.22;1.85;;;;;;;19.66;41.62;101364.91;5050421;28;20397;-72
2023/03/21 04:56:45;;;;;;;1.60;1.30;;;;;;;19.65;41.92;101366.78;5052278;28;20177;-72
2023/03/21 04:59:13;;;;;;;2.05;1.55;;;;;;;19.64;41.93;101358.84;5048458;28;20059;-73
2023/03/21 05:01:39;;;;;;;2.42;1.75;;;;;;;19.58;42.09;101354.06;5063422;28;20029;-73
2023/03/21 05:04:05;;;;;;;2.67;1.85;;;;;;;19.62;42.08;101368.94;5051131;28;20052;-72
2023/03/21 05:06:30;;;;;;;1.88;1.40;;;;;;;19.60;42.03;101366.38;5066725;28;20057;-72
2023/03/21 05:09:00;;;;;;;2.53;1.85;;;;;;;19.61;42.01;101368.09;5046416;28;20036;-72
2023/03/21 05:11:29;;;;;;;2.00;1.52;;;;;;;19.37;42.07;101332.91;5046430;28;20093;-72
2023/03/21 05:13:55;;;;;;;2.83;1.80;;;;;;;19.59;41.64;101370.09;5071610;28;20025;-73
2023/03/21 05:16:24;;;;;;;2.45;1.42;;;;;;;19.58;41.66;101368.41;5049472;28;20482;-72
2023/03/21 05:18:49;;;;;;;;;;;;;;;19.58;42.00;101365.72;5048567;28;20081;-72
2023/03/21 05:21:17;;;;;;;2.40;1.70;;;;;;;19.55;41.92;101360.66;5057091;28;19924;-72
2023/03/21 05:23:42;;;;;;;2.40;1.90;;;;;;;19.43;42.00;101346.59;5057426;28;20025;-72
2023/03/21 05:26:08;;;;;;;3.55;1.90;;;;;;;19.54;41.73;101358.97;5049275;28;20032;-72
2023/03/21 05:28:35;;;;;;;2.08;1.50;;;;;;;18.89;41.88;101259.72;5051377;28;20032;-71
2023/03/21 05:31:02;;;;;;;3.75;1.80;;;;;;;19.53;41.81;101368.03;5052133;28;20089;-71
2023/03/21 05:33:27;;;;;;;4.72;2.05;;;;;;;19.55;41.69;101368.75;5055994;28;20041;-72
2023/03/21 05:35:53;;;;;;;3.05;2.00;;;;;;;19.22;41.89;101305.72;5049317;28;20027;-71
2023/03/21 05:38:19;;;;;;;2.55;1.65;;;;;;;19.58;42.15;101365.72;5048894;28;20040;-71
2023/03/21 05:40:49;;;;;;;1.73;1.50;;;;;;;19.58;42.23;101359.47;5069542;28;20464;-72
2023/03/21 05:43:14;;;;;;;4.60;1.85;;;;;;;19.46;42.01;101343.59;5052730;28;20025;-72
2023/03/21 05:45:40;;;;;;;2.63;1.60;;;;;;;19.33;42.23;101324.31;5048559;28;20045;-71
2023/03/21 05:48:05;;;;;;;3.92;2.20;;;;;;;19.51;42.20;101358.44;5053405;28;20398;-72
2023/03/21 05:50:31;;;;;;;3.08;2.00;;;;;;;19.51;42.15;101356.56;5056627;28;20037;-72
2023/03/21 05:52:56;;;;;;;2.15;1.65;;;;;;;19.59;41.95;101366.56;5041158;28;20092;-72
2023/03/21 05:55:21;;;;;;;2.45;1.70;;;;;;;19.59;42.05;101355.78;5046296;28;20037;-73
2023/03/21 05:57:47;;;;;;;5.25;1.83;;;;;;;19.59;41.85;101366.56;5052472;28;20033;-72
2023/03/21 06:00:13;;;;;;;3.35;1.80;;;;;;;19.59;42.15;101374.66;5057985;28;20026;-72
2023/03/21 06:02:38;;;;;;;3.08;1.73;;;;;;;19.14;42.08;101289.50;5048956;28;20104;-72
2023/03/21 06:05:05;;;;;;;2.67;1.77;;;;;;;19.53;41.96;101356.41;5050972;28;20044;-69
2023/03/21 06:07:30;;;;;;;2.33;1.70;;;;;;;19.58;42.42;101364.84;5050723;28;20045;-69
2023/03/21 06:09:55;;;;;;;3.55;1.50;;;;;;;19.48;42.70;101346.94;5057124;28;20033;-70
2023/03/21 06:12:21;;;;;;;3.78;2.05;;;;;;;19.37;42.87;101333.78;5051754;28;20033;-70
2023/03/21 06:14:46;;;;;;;2.83;1.90;;;;;;;19.42;42.93;101344.91;5066526;28;20036;-69
2023/03/21 06:17:11;;;;;;;3.97;1.95;;;;;;;19.56;42.90;101361.47;5070386;28;20474;-69
2023/03/21 06:19:37;;;;;;;3.17;1.73;;;;;;;19.46;42.89;101342.75;5053994;28;20033;-69
2023/03/21 06:22:02;;;;;;;3.05;2.38;;;;;;;19.60;42.97;101370.94;5049776;28;20025;-68
2023/03/21 06:24:27;;;;;;;3.10;2.00;;;;;;;19.58;43.00;101360.34;5052262;28;20093;-68
2023/03/21 06:26:52;;;;;;;2.63;1.90;;;;;;;19.59;43.44;101364.72;5055517;28;20081;-68
2023/03/21 06:29:18;;;;;;;2.58;1.92;;;;;;;19.59;42.98;101355.78;5053261;28;20386;-69
2023/03/21 06:31:43;;;;;;;2.28;1.85;;;;;;;19.58;43.12;101360.34;5051048;28;20033;-69
2023/03/21 06:34:10;;;;;;;3.65;1.67;;;;;;;19.43;43.21;101330.41;5050844;28;20036;-70
2023/03/21 06:36:36;;;;;;;3.17;2.00;;;;;;;19.39;43.20;101337.13;5055818;28;20060;-71
2023/03/21 06:39:01;;;;;;;3.70;1.80;;;;;;;19.57;43.39;101366.69;5062353;28;20471;-71
2023/03/21 06:41:26;;;;;;;2.65;2.03;;;;;;;19.57;43.37;101363.16;5052094;28;20032;-71
2023/03/21 06:43:51;;;;;;;3.03;1.58;;;;;;;19.57;43.14;101364.00;5050390;28;20494;-69
2023/03/21 06:46:17;;;;;;;2.72;1.90;;;;;;;19.51;43.50;101348.50;5056030;28;20129;-69
2023/03/21 06:48:43;;;;;;;2.45;1.60;;;;;;;19.07;43.20;101280.34;5049750;28;20041;-70
2023/03/21 06:51:10;;;;;;;4.03;1.60;;;;;;;19.55;43.46;101357.94;5055625;28;20025;-69
2023/03/21 06:53:35;;;;;;;3.95;1.90;;;;;;;19.16;43.67;101290.19;5054614;28;20443;-69
2023/03/21 06:56:00;;;;;;;2.90;1.98;;;;;;;19.52;43.44;101355.56;5053507;28;20092;-69
2023/03/21 06:58:26;;;;;;;2.28;1.90;;;;;;;19.42;43.42;101335.97;5062563;28;20064;-69
2023/03/21 07:00:52;;;;;;;4.28;2.20;;;;;;;19.24;43.51;101309.06;5054445;28;20020;-70
2023/03/21 07:03:18;;;;;;;3.47;1.83;;;;;;;19.54;43.73;101364.34;5062933;28;20029;-71
2023/03/21 07:05:43;;;;;;;3.13;1.83;;;;;;;19.38;43.75;101334.59;5051331;28;20048;-68
2023/03/21 07:08:12;;;;;;;3.63;2.25;;;;;;;19.54;43.90;101360.78;5069927;28;20482;-68
2023/03/21 07:10:42;;;;;;;1.67;1.30;;;;;;;19.54;43.83;101368.88;5053552;28;20051;-70
2023/03/21 07:13:07;;;;;;;;;;;;;;;19.54;43.77;101360.78;5049110;28;20364;-69
2023/03/21 07:15:33;;;;;;;2.83;1.75;;;;;;;19.37;43.50;101338.28;5049567;28;19916;-70
2023/03/21 07:17:59;;;;;;;2.92;1.77;;;;;;;19.43;43.45;101357.38;5056981;28;20504;-70
2023/03/21 07:20:25;;;;;;;2.92;1.95;;;;;;;19.21;43.75;101314.81;5051621;28;20029;-69
2023/03/21 07:22:51;;;;;;;3.08;1.70;;;;;;;19.51;43.57;101361.13;5053591;28;20025;-70
2023/03/21 07:25:16;;;;;;;4.10;2.33;;;;;;;19.28;43.44;101323.09;5049271;28;20051;-70
2023/03/21 07:27:41;;;;;;;3.70;2.00;;;;;;;19.40;43.55;101357.69;5055363;28;20028;-70
2023/03/21 07:30:09;;;;;;;2.75;1.60;;;;;;;19.49;43.70;101363.97;5052078;28;20115;-71
2023/03/21 07:32:36;;;;;;;3.03;1.80;;;;;;;19.47;43.55;101364.13;5057043;28;20056;-71
2023/03/21 07:35:02;;;;;;;4.15;1.80;;;;;;;19.47;43.24;101369.53;5059006;28;20488;-72
2023/03/21 07:37:27;;;;;;;4.13;1.92;;;;;;;19.45;43.17;101358.09;5063037;28;20482;-70
2023/03/21 07:39:52;;;;;;;3.95;2.00;;;;;;;19.46;43.12;101358.91;5051117;28;20482;-70
2023/03/21 07:42:18;;;;;;;4.00;2.00;;;;;;;19.45;43.11;101354.50;5055543;28;20017;-69
2023/03/21 07:44:43;;;;;;;3.30;1.90;;;;;;;19.44;43.06;101353.66;5063781;28;20075;-70
2023/03/21 07:47:08;;;;;;;3.13;1.80;;;;;;;19.45;43.04;101362.59;5058632;28;20094;-69
2023/03/21 07:49:34;;;;;;;2.72;1.63;;;;;;;19.41;43.20;101350.44;5052357;28;20032;-69
2023/03/21 07:52:00;;;;;;;3.38;1.80;;;;;;;19.43;43.08;101357.38;5054959;28;20126;-70
2023/03/21 07:54:27;;;;;;;3.70;1.77;;;;;;;19.41;43.20;101356.72;5060352;28;20086;-70
2023/03/21 07:56:53;;;;;;;2.83;1.80;;;;;;;19.35;43.23;101348.41;5057323;28;20032;-68
2023/03/21 07:59:18;;;;;;;3.15;2.67;;;;;;;19.02;43.06;101293.47;5062222;28;20055;-73
2023/03/21 08:01:43;;;;;;;2.92;1.80;;;;;;;19.22;43.21;101316.50;5061507;28;20025;-74
2023/03/21 08:04:08;;;;;;;3.67;2.00;;;;;;;19.26;43.34;101327.81;5057997;28;20033;-73
2023/03/21 08:06:34;;;;;;;6.13;1.40;;;;;;;19.44;43.03;101350.13;5054336;28;20072;-74
2023/03/21 08:09:00;;;;;;;3.83;2.00;;;;;;;19.23;43.12;101312.78;5052978;28;20025;-74
2023/03/21 08:11:26;;;;;;;3.63;1.83;;;;;;;19.22;43.31;101314.63;5053635;28;20088;-73
2023/03/21 08:13:52;;;;;;;3.40;2.05;;;;;;;19.32;43.22;101332.53;5055147;28;20026;-74
2023/03/21 08:16:18;;;;;;;2.30;1.70;;;;;;;19.44;43.57;101348.28;5054965;28;20028;-73
2023/03/21 08:18:43;;;;;;;1.92;1.40;;;;;;;19.44;43.54;101353.66;5060974;28;20026;-73
2023/03/21 08:21:08;;;;;;;3.65;1.70;;;;;;;19.44;43.40;101359.06;5062388;28;20028;-73
2023/03/21 08:23:34;;;;;;;3.15;1.95;;;;;;;19.04;43.40;101294.16;5056401;28;20033;-73
2023/03/21 08:26:00;;;;;;;3.95;1.80;;;;;;;19.45;43.25;101354.50;5051857;28;20036;-72
2023/03/21 08:28:25;;;;;;;1.98;1.48;;;;;;;19.45;43.37;101351.81;5052168;28;20017;-72
2023/03/21 08:30:50;;;;;;;2.22;1.63;;;;;;;19.38;43.18;101345.41;5055332;28;20025;-72
2023/03/21 08:33:17;;;;;;;3.00;1.60;;;;;;;19.46;43.37;101356.22;5067484;28;20040;-72
2023/03/21 08:35:43;;;;;;;2.28;1.67;;;;;;;19.30;43.59;101330.03;5049036;28;20036;-73
2023/03/21 08:38:08;;;;;;;3.25;1.80;;;;;;;18.84;43.25;101250.44;5052220;28;20025;-73
2023/03/21 08:40:34;;;;;;;2.50;1.70;;;;;;;19.06;43.20;101284.91;5055213;28;20025;-71
2023/03/21 08:43:00;;;;;;;3.03;1.80;;;;;;;19.29;43.56;101322.94;5053194;28;20331;-72
2023/03/21 08:45:25;;;;;;;3.15;1.80;;;;;;;19.23;43.74;101310.09;5060060;28;20084;-72
2023/03/21 08:47:51;;;;;;;5.13;2.33;;;;;;;19.47;43.41;101347.97;5055900;28;20036;-72
2023/03/21 08:50:19;;;;;;;4.18;1.80;;;;;;;18.90;43.76;101277.59;5050712;28;20524;-73
2023/03/21 08:52:45;;;;;;;3.35;1.98;;;;;;;19.49;43.29;101337.84;5064109;28;20060;-73
2023/03/21 08:55:12;;;;;;;3.78;2.30;;;;;;;19.51;43.61;101335.00;5056368;28;20032;-73
2023/03/21 08:57:37;;;;;;;3.30;1.70;;;;;;;19.15;43.86;101269.63;5056195;28;20029;-72
2023/03/21 09:00:13;;;;;;;4.28;2.08;;;;;;;19.53;44.01;101329.44;5052289;28;20040;-73
2023/03/21 09:02:40;;;;;;;3.45;2.00;;;;;;;19.29;43.97;101292.44;5050690;28;20105;-71
2023/03/21 09:05:06;;;;;;;2.70;2.03;;;;;;;19.56;43.78;101321.88;5042200;28;20091;-72
2023/03/21 09:07:35;;;;;;;3.88;2.13;;;;;;;19.49;43.92;101320.81;5049038;28;20059;-71
2023/03/21 09:10:00;;;;;;;2.40;1.50;;;;;;;19.40;44.10;101297.53;5037289;28;20398;-73
2023/03/21 09:12:26;;;;;;;4.80;2.00;;;;;;;19.60;43.95;101339.41;5067486;28;20353;-72
2023/03/21 09:14:52;;;;;;;3.25;1.80;;;;;;;19.41;44.00;101296.50;5054221;28;20029;-72
2023/03/21 09:17:17;;;;;;;3.83;1.98;;;;;;;19.12;43.71;101246.53;5051442;28;20033;-72
2023/03/21 09:19:43;;;;;;;3.58;1.98;;;;;;;19.62;44.04;101315.84;5051704;28;20041;-72
2023/03/21 09:22:16;;;;;;;3.53;2.13;;;;;;;19.26;43.74;101258.56;5055253;28;20026;-72
2023/03/21 09:24:42;;;;;;;4.07;2.78;;;;;;;19.64;43.69;101321.94;5052851;28;20033;-72
2023/03/21 09:27:07;;;;;;;3.60;1.98;;;;;;;19.43;43.99;101283.72;5046063;28;20052;-73
2023/03/21 09:29:33;;;;;;;2.88;1.80;;;;;;;19.47;44.02;101290.50;5053448;28;20033;-73
2023/03/21 09:31:58;;;;;;;4.18;2.45;;;;;;;19.43;44.03;101284.56;5054874;28;20037;-73
2023/03/21 09:34:25;;;;;;;4.63;2.53;;;;;;;19.71;44.01;101314.03;5058851;28;20091;-72
2023/03/21 09:36:55;;;;;;;4.20;1.90;;;;;;;19.47;43.70;101274.31;5066719;28;20537;-72
2023/03/21 09:39:21;;;;;;;3.42;2.10;;;;;;;19.48;43.94;101276.84;5051512;28;20029;-71
2023/03/21 09:41:59;;;;;;;2.78;1.80;;;;;;;19.77;43.87;101312.53;5053681;28;20060;-72
2023/03/21 09:44:38;;;;;;;2.38;1.65;;;;;;;19.47;43.78;101260.81;5062309;28;20037;-71
2023/03/21 09:47:21;;;;;;;2.92;1.92;;;;;;;19.75;43.99;101291.09;5050880;28;20055;-72
2023/03/21 09:49:58;;;;;;;2.60;1.95;;;;;;;19.83;43.98;101301.06;5058220;28;20082;-73
2023/03/21 09:52:33;;;;;;;5.30;2.10;;;;;;;19.76;43.61;101276.63;5048634;28;20599;-71
2023/03/21 09:54:58;;;;;;;5.15;2.03;;;;;;;19.66;43.99;101255.16;5059844;28;20078;-71
2023/03/21 09:57:30;;;;;;;4.07;1.52;;;;;;;19.88;43.80;101288.78;5056677;28;20020;-72
2023/03/21 09:59:57;;;;;;;4.32;2.10;;;;;;;19.76;43.73;101268.53;5053400;28;20025;-72
2023/03/21 10:02:45;;;;;;;5.82;2.90;;;;;;;19.91;43.75;101287.59;5040965;28;20052;-73
2023/03/21 10:05:21;;;;;;;3.13;1.92;;;;;;;19.92;43.70;101292.84;5058038;28;20033;-73
2023/03/21 10:08:06;;;;;;;2.42;1.80;;;;;;;19.83;43.29;101266.81;5049766;28;20380;-72
2023/03/21 10:10:36;;;;;;;3.78;1.83;;;;;;;19.64;43.44;101232.06;5050242;28;20367;-71
2023/03/21 10:13:01;;;;;;;5.63;1.75;;;;;;;19.48;43.44;101212.09;5057393;28;20045;-72
2023/03/21 10:15:26;;;;;;;2.63;1.73;;;;;;;19.98;43.60;101275.13;5049539;28;20032;-72
2023/03/21 10:18:02;;;;;;;4.75;1.77;;;;;;;20.00;43.12;101272.25;5068812;28;20171;-73
2023/03/21 10:20:35;;;;;;;4.28;1.90;;;;;;;19.98;43.32;101254.38;5064687;28;20033;-72
2023/03/21 10:23:05;;;;;;;2.88;1.77;;;;;;;20.04;43.42;101254.72;5068267;28;20017;-72
2023/03/21 10:25:36;;;;;;;2.42;1.50;;;;;;;19.80;42.94;101212.38;5065981;28;20032;-71
2023/03/21 10:28:04;;;;;;;2.75;1.60;;;;;;;19.84;43.08;101211.88;5040652;28;20096;-71
2023/03/21 10:30:41;;;;;;;4.75;1.67;;;;;;;20.08;42.91;101248.81;5042856;28;20033;-72
2023/03/21 10:33:10;;;;;;;2.88;1.60;;;;;;;20.10;42.80;101238.72;5059779;28;20033;-73
2023/03/21 10:35:36;;;;;;;3.90;1.63;;;;;;;19.70;43.27;101167.50;5067603;28;20028;-71
2023/03/21 10:38:03;;;;;;;3.85;2.10;;;;;;;20.14;42.98;101241.91;5036196;28;20037;-71
2023/03/21 10:40:29;;;;;;;2.75;1.60;;;;;;;20.16;43.12;101235.31;5046953;28;20116;-71
2023/03/21 10:42:56;;;;;;;2.83;1.60;;;;;;;20.19;42.81;101231.44;5048301;28;20025;-72
2023/03/21 10:45:22;;;;;;;3.08;1.50;;;;;;;20.21;42.54;101230.25;5050698;28;20025;-72
2023/03/21 10:47:48;;;;;;;2.67;1.50;;;;;;;20.17;42.71;101226.19;5050031;28;20102;-72
2023/03/21 10:50:19;;;;;;;3.25;1.45;;;;;;;20.29;42.43;101233.97;5050257;28;20033;-70
2023/03/21 10:52:49;;;;;;;2.47;1.60;;;;;;;20.31;42.76;101234.66;5067963;28;20053;-69
2023/03/21 10:55:27;;;;;;;3.38;1.40;;;;;;;20.33;42.72;101235.31;5055375;28;20039;-71
2023/03/21 10:57:59;;;;;;;2.88;2.08;;;;;;;20.31;42.38;101222.00;5067802;28;20032;-73
2023/03/21 11:00:32;;;;;;;3.33;1.50;;;;;;;20.16;42.49;101194.81;5045935;28;20040;-69
2023/03/21 11:02:58;;;;;;;4.05;2.05;;;;;;;20.38;42.71;101222.97;5056089;28;20026;-69
2023/03/21 11:05:35;;;;;;;3.10;1.45;;;;;;;20.20;42.65;101188.06;5068210;28;20094;-69
2023/03/21 11:08:09;;;;;;;2.70;1.70;;;;;;;20.47;42.48;101234.63;5052599;28;20091;-69
2023/03/21 11:10:36;;;;;;;4.28;1.90;;;;;;;20.38;42.66;101203.22;5067409;28;20033;-68
2023/03/21 11:13:25;;;;;;;4.20;1.60;;;;;;;20.45;42.81;101205.09;5049750;28;20021;-68
2023/03/21 11:15:57;;;;;;;2.28;1.30;;;;;;;20.51;42.63;101218.94;5058137;28;20029;-69
2023/03/21 11:18:25;;;;;;;4.20;1.85;;;;;;;20.62;42.58;101210.50;5052105;28;20030;-68
2023/03/21 11:20:53;;;;;;;2.97;1.60;;;;;;;20.65;42.67;101213.69;5067604;28;20478;-72
2023/03/21 11:23:20;;;;;;;3.92;2.22;;;;;;;20.58;42.24;101188.38;5053832;28;20073;-73
2023/03/21 11:25:48;;;;;;;4.90;2.10;;;;;;;20.46;42.25;101152.75;5050148;28;20025;-73
2023/03/21 11:28:22;;;;;;;4.07;1.75;;;;;;;20.77;42.45;101189.00;5061553;28;20512;-71
2023/03/21 11:30:58;;;;;;;2.47;1.55;;;;;;;20.67;42.14;101176.53;5062443;28;20028;-69
2023/03/21 11:33:32;;;;;;;2.92;2.10;;;;;;;20.85;41.91;101200.59;5069428;28;20026;-71
2023/03/21 11:36:04;;;;;;;3.08;1.88;;;;;;;20.85;41.90;101197.06;5056157;28;20027;-73